sensor_id;sensor_type;location;lat;lon;timestamp;P1;durP1;ratioP1;P2;durP2;ratioP2
23252;SDS011;11795;47.054;15.408;2022-09-28T00:00:00;4.2;;;3.7;;
23252;SDS011;11795;47.054;15.408;2022-09-28T00:02:00;4.2;;;3.7;;
23252;SDS011;11795;47.054;15.408;2022-09-28T00:04:00;4.5;;;3.8;;
23252;SDS011;11795;47.054;15.408;2022-09-28T00:06:01;4.5;;;3.8;;
23252;SDS011;11795;47.054;15.408;2022-09-28T00:08:00;4.4;;;3.7;;
23252;SDS011;11795;47.054;15.408;2022-09-28T00:10:00;4.4;;;3.7;;
23252;SDS011;11795;47.054;15.408;2022-09-28T00:12:00;4.4;;;3.7;;
23252;SDS011;11795;47.054;15.408;2022-09-28T00:14:02;4.0;;;3.4;;
23252;SDS011;11795;47.054;15.408;2022-09-28T00:16:01;4.0;;;3.4;;
23252;SDS011;11795;47.054;15.408;2022-09-28T00:18:00;3.5;;;3.0;;
23252;SDS011;11795;47.054;15.408;2022-09-28T00:20:00;3.5;;;3.0;;
23252;SDS011;11795;47.054;15.408;2022-09-28T00:22:00;3.5;;;3.0;;
23252;SDS011;11795;47.054;15.408;2022-09-28T00:24:10;3.7;;;3.2;;
23252;SDS011;11795;47.054;15.408;2022-09-28T00:26:00;3.7;;;3.2;;
23252;SDS011;11795;47.054;15.408;2022-09-28T00:28:00;4.2;;;3.3;;
23252;SDS011;11795;47.054;15.408;2022-09-28T00:30:00;4.2;;;3.3;;
23252;SDS011;11795;47.054;15.408;2022-09-28T00:32:02;4.2;;;3.3;;
23252;SDS011;11795;47.054;15.408;2022-09-28T00:34:00;4.2;;;3.7;;
23252;SDS011;11795;47.054;15.408;2022-09-28T00:36:00;4.2;;;3.7;;
23252;SDS011;11795;47.054;15.408;2022-09-28T00:38:01;4.3;;;3.6;;
23252;SDS011;11795;47.054;15.408;2022-09-28T00:40:00;4.3;;;3.6;;
23252;SDS011;11795;47.054;15.408;2022-09-28T00:42:00;4.3;;;3.6;;
23252;SDS011;11795;47.054;15.408;2022-09-28T00:46:01;3.5;;;3.2;;
23252;SDS011;11795;47.054;15.408;2022-09-28T00:48:00;4.1;;;3.3;;
23252;SDS011;11795;47.054;15.408;2022-09-28T00:50:00;4.1;;;3.3;;
23252;SDS011;11795;47.054;15.408;2022-09-28T00:52:00;4.1;;;3.3;;
23252;SDS011;11795;47.054;15.408;2022-09-28T00:54:00;3.4;;;3.0;;
23252;SDS011;11795;47.054;15.408;2022-09-28T00:56:01;3.4;;;3.0;;
23252;SDS011;11795;47.054;15.408;2022-09-28T00:58:00;3.4;;;3.0;;
23252;SDS011;11795;47.054;15.408;2022-09-28T01:00:00;3.3;;;2.7;;
23252;SDS011;11795;47.054;15.408;2022-09-28T01:02:00;3.3;;;2.7;;
23252;SDS011;11795;47.054;15.408;2022-09-28T01:04:00;3.0;;;2.6;;
23252;SDS011;11795;47.054;15.408;2022-09-28T01:06:02;3.0;;;2.6;;
23252;SDS011;11795;47.054;15.408;2022-09-28T01:08:00;3.0;;;2.6;;
23252;SDS011;11795;47.054;15.408;2022-09-28T01:10:00;2.4;;;2.2;;
23252;SDS011;11795;47.054;15.408;2022-09-28T01:12:00;2.4;;;2.2;;
23252;SDS011;11795;47.054;15.408;2022-09-28T01:14:00;2.5;;;1.9;;
23252;SDS011;11795;47.054;15.408;2022-09-28T01:16:02;2.5;;;1.9;;
23252;SDS011;11795;47.054;15.408;2022-09-28T01:18:03;2.5;;;1.9;;
23252;SDS011;11795;47.054;15.408;2022-09-28T01:20:05;3.3;;;2.4;;
23252;SDS011;11795;47.054;15.408;2022-09-28T01:22:05;3.3;;;2.4;;
23252;SDS011;11795;47.054;15.408;2022-09-28T01:28:01;2.4;;;2.2;;
23252;SDS011;11795;47.054;15.408;2022-09-28T01:30:01;2.5;;;2.1;;
23252;SDS011;11795;47.054;15.408;2022-09-28T01:32:01;2.5;;;2.1;;
23252;SDS011;11795;47.054;15.408;2022-09-28T01:34:01;3.0;;;2.3;;
23252;SDS011;11795;47.054;15.408;2022-09-28T01:36:01;3.0;;;2.3;;
23252;SDS011;11795;47.054;15.408;2022-09-28T01:38:01;3.0;;;2.3;;
23252;SDS011;11795;47.054;15.408;2022-09-28T01:40:00;5.8;;;5.2;;
23252;SDS011;11795;47.054;15.408;2022-09-28T01:42:02;5.8;;;5.2;;
23252;SDS011;11795;47.054;15.408;2022-09-28T01:44:01;6.5;;;5.6;;
23252;SDS011;11795;47.054;15.408;2022-09-28T01:46:00;6.5;;;5.6;;
23252;SDS011;11795;47.054;15.408;2022-09-28T01:48:01;6.5;;;5.6;;
23252;SDS011;11795;47.054;15.408;2022-09-28T01:50:02;20.2;;;7.1;;
23252;SDS011;11795;47.054;15.408;2022-09-28T01:52:01;20.2;;;7.1;;
23252;SDS011;11795;47.054;15.408;2022-09-28T01:54:00;7.4;;;6.4;;
23252;SDS011;11795;47.054;15.408;2022-09-28T01:56:01;7.4;;;6.4;;
23252;SDS011;11795;47.054;15.408;2022-09-28T01:58:00;7.4;;;6.4;;
23252;SDS011;11795;47.054;15.408;2022-09-28T02:00:02;8.7;;;5.8;;
23252;SDS011;11795;47.054;15.408;2022-09-28T02:02:01;8.7;;;5.8;;
23252;SDS011;11795;47.054;15.408;2022-09-28T02:04:01;5.9;;;4.6;;
23252;SDS011;11795;47.054;15.408;2022-09-28T02:06:01;5.9;;;4.6;;
23252;SDS011;11795;47.054;15.408;2022-09-28T02:08:01;5.9;;;4.6;;
23252;SDS011;11795;47.054;15.408;2022-09-28T02:10:01;4.9;;;4.4;;
23252;SDS011;11795;47.054;15.408;2022-09-28T02:12:02;4.9;;;4.4;;
23252;SDS011;11795;47.054;15.408;2022-09-28T02:14:02;5.1;;;4.2;;
23252;SDS011;11795;47.054;15.408;2022-09-28T02:16:01;5.1;;;4.2;;
23252;SDS011;11795;47.054;15.408;2022-09-28T02:18:00;5.1;;;4.2;;
23252;SDS011;11795;47.054;15.408;2022-09-28T02:20:00;4.7;;;4.2;;
23252;SDS011;11795;47.054;15.408;2022-09-28T02:22:00;4.7;;;4.2;;
23252;SDS011;11795;47.054;15.408;2022-09-28T02:24:01;4.7;;;4.2;;
23252;SDS011;11795;47.054;15.408;2022-09-28T02:26:02;4.7;;;4.2;;
23252;SDS011;11795;47.054;15.408;2022-09-28T02:28:01;4.7;;;4.2;;
23252;SDS011;11795;47.054;15.408;2022-09-28T02:30:00;4.6;;;4.1;;
23252;SDS011;11795;47.054;15.408;2022-09-28T02:32:00;4.6;;;4.1;;
23252;SDS011;11795;47.054;15.408;2022-09-28T02:34:00;5.4;;;4.0;;
23252;SDS011;11795;47.054;15.408;2022-09-28T02:36:00;5.4;;;4.0;;
23252;SDS011;11795;47.054;15.408;2022-09-28T02:38:00;5.4;;;4.0;;
23252;SDS011;11795;47.054;15.408;2022-09-28T02:40:00;7.4;;;4.2;;
23252;SDS011;11795;47.054;15.408;2022-09-28T02:42:01;7.4;;;4.2;;
23252;SDS011;11795;47.054;15.408;2022-09-28T02:44:02;5.6;;;4.1;;
23252;SDS011;11795;47.054;15.408;2022-09-28T02:46:04;5.6;;;4.1;;
23252;SDS011;11795;47.054;15.408;2022-09-28T02:48:02;5.6;;;4.1;;
23252;SDS011;11795;47.054;15.408;2022-09-28T02:50:02;4.2;;;3.8;;
23252;SDS011;11795;47.054;15.408;2022-09-28T02:52:06;4.2;;;3.8;;
23252;SDS011;11795;47.054;15.408;2022-09-28T02:54:04;4.9;;;3.8;;
23252;SDS011;11795;47.054;15.408;2022-09-28T02:56:04;4.9;;;3.8;;
23252;SDS011;11795;47.054;15.408;2022-09-28T03:00:02;25.3;;;4.8;;
23252;SDS011;11795;47.054;15.408;2022-09-28T03:02:00;25.3;;;4.8;;
23252;SDS011;11795;47.054;15.408;2022-09-28T03:04:02;9.3;;;3.9;;
23252;SDS011;11795;47.054;15.408;2022-09-28T03:06:00;9.3;;;3.9;;
23252;SDS011;11795;47.054;15.408;2022-09-28T03:08:01;9.3;;;3.9;;
23252;SDS011;11795;47.054;15.408;2022-09-28T03:10:01;4.1;;;3.7;;
23252;SDS011;11795;47.054;15.408;2022-09-28T03:12:02;4.1;;;3.7;;
23252;SDS011;11795;47.054;15.408;2022-09-28T03:14:00;3.4;;;3.1;;
23252;SDS011;11795;47.054;15.408;2022-09-28T03:16:08;3.4;;;3.1;;
23252;SDS011;11795;47.054;15.408;2022-09-28T03:18:00;3.4;;;3.1;;
23252;SDS011;11795;47.054;15.408;2022-09-28T03:20:00;3.1;;;2.8;;
23252;SDS011;11795;47.054;15.408;2022-09-28T03:22:00;3.1;;;2.8;;
23252;SDS011;11795;47.054;15.408;2022-09-28T03:24:00;3.2;;;2.9;;
23252;SDS011;11795;47.054;15.408;2022-09-28T03:26:00;3.2;;;2.9;;
23252;SDS011;11795;47.054;15.408;2022-09-28T03:28:00;3.2;;;2.9;;
23252;SDS011;11795;47.054;15.408;2022-09-28T03:30:00;4.8;;;3.8;;
23252;SDS011;11795;47.054;15.408;2022-09-28T03:32:00;4.8;;;3.8;;
23252;SDS011;11795;47.054;15.408;2022-09-28T03:34:00;4.0;;;3.6;;
23252;SDS011;11795;47.054;15.408;2022-09-28T03:36:00;4.0;;;3.6;;
23252;SDS011;11795;47.054;15.408;2022-09-28T03:38:00;4.0;;;3.6;;
23252;SDS011;11795;47.054;15.408;2022-09-28T03:40:00;7.3;;;5.4;;
23252;SDS011;11795;47.054;15.408;2022-09-28T03:42:00;7.3;;;5.4;;
23252;SDS011;11795;47.054;15.408;2022-09-28T03:44:00;9.3;;;6.2;;
23252;SDS011;11795;47.054;15.408;2022-09-28T03:46:00;9.3;;;6.2;;
23252;SDS011;11795;47.054;15.408;2022-09-28T03:48:00;9.3;;;6.2;;
23252;SDS011;11795;47.054;15.408;2022-09-28T03:50:00;11.5;;;6.4;;
23252;SDS011;11795;47.054;15.408;2022-09-28T03:52:00;11.5;;;6.4;;
23252;SDS011;11795;47.054;15.408;2022-09-28T03:54:00;7.6;;;6.1;;
23252;SDS011;11795;47.054;15.408;2022-09-28T03:56:01;7.6;;;6.1;;
23252;SDS011;11795;47.054;15.408;2022-09-28T03:58:00;7.6;;;6.1;;
23252;SDS011;11795;47.054;15.408;2022-09-28T04:00:00;7.1;;;6.4;;
23252;SDS011;11795;47.054;15.408;2022-09-28T04:02:00;7.1;;;6.4;;
23252;SDS011;11795;47.054;15.408;2022-09-28T04:04:00;8.0;;;6.2;;
23252;SDS011;11795;47.054;15.408;2022-09-28T04:06:00;8.0;;;6.2;;
23252;SDS011;11795;47.054;15.408;2022-09-28T04:08:00;8.0;;;6.2;;
23252;SDS011;11795;47.054;15.408;2022-09-28T04:10:00;10.6;;;7.3;;
23252;SDS011;11795;47.054;15.408;2022-09-28T04:12:00;10.6;;;7.3;;
23252;SDS011;11795;47.054;15.408;2022-09-28T04:14:00;8.1;;;6.7;;
23252;SDS011;11795;47.054;15.408;2022-09-28T04:16:00;8.1;;;6.7;;
23252;SDS011;11795;47.054;15.408;2022-09-28T04:18:00;8.1;;;6.7;;
23252;SDS011;11795;47.054;15.408;2022-09-28T04:20:02;7.6;;;6.8;;
23252;SDS011;11795;47.054;15.408;2022-09-28T04:22:00;7.6;;;6.8;;
23252;SDS011;11795;47.054;15.408;2022-09-28T04:24:00;9.4;;;8.3;;
23252;SDS011;11795;47.054;15.408;2022-09-28T04:26:00;9.4;;;8.3;;
23252;SDS011;11795;47.054;15.408;2022-09-28T04:28:10;9.4;;;8.3;;
23252;SDS011;11795;47.054;15.408;2022-09-28T04:30:00;9.0;;;7.9;;
23252;SDS011;11795;47.054;15.408;2022-09-28T04:32:00;9.0;;;7.9;;
23252;SDS011;11795;47.054;15.408;2022-09-28T04:34:00;8.2;;;7.4;;
23252;SDS011;11795;47.054;15.408;2022-09-28T04:36:00;8.2;;;7.4;;
23252;SDS011;11795;47.054;15.408;2022-09-28T04:38:00;8.2;;;7.4;;
23252;SDS011;11795;47.054;15.408;2022-09-28T04:40:00;7.5;;;6.6;;
23252;SDS011;11795;47.054;15.408;2022-09-28T04:42:00;7.5;;;6.6;;
23252;SDS011;11795;47.054;15.408;2022-09-28T04:44:00;7.0;;;6.3;;
23252;SDS011;11795;47.054;15.408;2022-09-28T04:46:00;7.0;;;6.3;;
23252;SDS011;11795;47.054;15.408;2022-09-28T04:48:00;7.0;;;6.3;;
23252;SDS011;11795;47.054;15.408;2022-09-28T04:50:00;7.8;;;6.3;;
23252;SDS011;11795;47.054;15.408;2022-09-28T04:52:00;7.8;;;6.3;;
23252;SDS011;11795;47.054;15.408;2022-09-28T04:54:00;6.9;;;5.9;;
23252;SDS011;11795;47.054;15.408;2022-09-28T04:56:00;6.9;;;5.9;;
23252;SDS011;11795;47.054;15.408;2022-09-28T04:58:02;6.9;;;5.9;;
23252;SDS011;11795;47.054;15.408;2022-09-28T05:00:00;7.0;;;6.3;;
23252;SDS011;11795;47.054;15.408;2022-09-28T05:02:00;7.0;;;6.3;;
23252;SDS011;11795;47.054;15.408;2022-09-28T05:04:00;7.2;;;6.5;;
23252;SDS011;11795;47.054;15.408;2022-09-28T05:06:00;7.2;;;6.5;;
23252;SDS011;11795;47.054;15.408;2022-09-28T05:08:00;7.2;;;6.5;;
23252;SDS011;11795;47.054;15.408;2022-09-28T05:10:00;22.5;;;9.4;;
23252;SDS011;11795;47.054;15.408;2022-09-28T05:12:00;22.5;;;9.4;;
23252;SDS011;11795;47.054;15.408;2022-09-28T05:14:00;8.9;;;8.0;;
23252;SDS011;11795;47.054;15.408;2022-09-28T05:16:00;8.9;;;8.0;;
23252;SDS011;11795;47.054;15.408;2022-09-28T05:18:00;8.9;;;8.0;;
23252;SDS011;11795;47.054;15.408;2022-09-28T05:20:01;10.1;;;7.7;;
23252;SDS011;11795;47.054;15.408;2022-09-28T05:22:03;10.1;;;7.7;;
23252;SDS011;11795;47.054;15.408;2022-09-28T05:24:00;8.4;;;7.4;;
23252;SDS011;11795;47.054;15.408;2022-09-28T05:26:00;8.4;;;7.4;;
23252;SDS011;11795;47.054;15.408;2022-09-28T05:28:02;8.4;;;7.4;;
23252;SDS011;11795;47.054;15.408;2022-09-28T05:30:00;10.0;;;7.8;;
23252;SDS011;11795;47.054;15.408;2022-09-28T05:32:00;10.0;;;7.8;;
23252;SDS011;11795;47.054;15.408;2022-09-28T05:34:00;10.9;;;8.6;;
23252;SDS011;11795;47.054;15.408;2022-09-28T05:36:00;10.9;;;8.6;;
23252;SDS011;11795;47.054;15.408;2022-09-28T05:38:01;10.9;;;8.6;;
23252;SDS011;11795;47.054;15.408;2022-09-28T05:40:00;10.0;;;8.3;;
23252;SDS011;11795;47.054;15.408;2022-09-28T05:42:00;10.0;;;8.3;;
23252;SDS011;11795;47.054;15.408;2022-09-28T05:44:00;11.9;;;9.2;;
23252;SDS011;11795;47.054;15.408;2022-09-28T05:46:00;11.9;;;9.2;;
23252;SDS011;11795;47.054;15.408;2022-09-28T05:48:00;11.9;;;9.2;;
23252;SDS011;11795;47.054;15.408;2022-09-28T05:50:00;9.7;;;7.9;;
23252;SDS011;11795;47.054;15.408;2022-09-28T05:52:00;9.7;;;7.9;;
23252;SDS011;11795;47.054;15.408;2022-09-28T05:54:00;11.5;;;9.0;;
23252;SDS011;11795;47.054;15.408;2022-09-28T05:56:00;11.5;;;9.0;;
23252;SDS011;11795;47.054;15.408;2022-09-28T05:58:00;11.5;;;9.0;;
23252;SDS011;11795;47.054;15.408;2022-09-28T06:00:00;10.4;;;8.3;;
23252;SDS011;11795;47.054;15.408;2022-09-28T06:02:00;10.4;;;8.3;;
23252;SDS011;11795;47.054;15.408;2022-09-28T06:04:00;9.2;;;8.1;;
23252;SDS011;11795;47.054;15.408;2022-09-28T06:06:00;9.2;;;8.1;;
23252;SDS011;11795;47.054;15.408;2022-09-28T06:08:00;9.2;;;8.1;;
23252;SDS011;11795;47.054;15.408;2022-09-28T06:10:00;10.6;;;9.0;;
23252;SDS011;11795;47.054;15.408;2022-09-28T06:12:00;10.6;;;9.0;;
23252;SDS011;11795;47.054;15.408;2022-09-28T06:14:00;9.2;;;8.0;;
23252;SDS011;11795;47.054;15.408;2022-09-28T06:16:00;9.2;;;8.0;;
23252;SDS011;11795;47.054;15.408;2022-09-28T06:18:00;9.2;;;8.0;;
23252;SDS011;11795;47.054;15.408;2022-09-28T06:20:00;7.4;;;6.6;;
23252;SDS011;11795;47.054;15.408;2022-09-28T06:22:00;7.4;;;6.6;;
23252;SDS011;11795;47.054;15.408;2022-09-28T06:24:00;7.0;;;5.7;;
23252;SDS011;11795;47.054;15.408;2022-09-28T06:26:00;7.0;;;5.7;;
23252;SDS011;11795;47.054;15.408;2022-09-28T06:28:00;7.0;;;5.7;;
23252;SDS011;11795;47.054;15.408;2022-09-28T06:30:01;4.8;;;4.2;;
23252;SDS011;11795;47.054;15.408;2022-09-28T06:32:00;4.8;;;4.2;;
23252;SDS011;11795;47.054;15.408;2022-09-28T06:34:00;5.1;;;3.0;;
23252;SDS011;11795;47.054;15.408;2022-09-28T06:36:00;5.1;;;3.0;;
23252;SDS011;11795;47.054;15.408;2022-09-28T06:38:00;5.1;;;3.0;;
23252;SDS011;11795;47.054;15.408;2022-09-28T06:40:00;3.8;;;2.7;;
23252;SDS011;11795;47.054;15.408;2022-09-28T06:42:02;3.8;;;2.7;;
23252;SDS011;11795;47.054;15.408;2022-09-28T06:44:01;5.3;;;3.5;;
23252;SDS011;11795;47.054;15.408;2022-09-28T06:46:00;5.3;;;3.5;;
23252;SDS011;11795;47.054;15.408;2022-09-28T06:48:00;5.3;;;3.5;;
23252;SDS011;11795;47.054;15.408;2022-09-28T06:50:00;4.8;;;3.4;;
23252;SDS011;11795;47.054;15.408;2022-09-28T06:52:00;4.8;;;3.4;;
23252;SDS011;11795;47.054;15.408;2022-09-28T06:54:00;4.8;;;3.3;;
23252;SDS011;11795;47.054;15.408;2022-09-28T06:56:01;4.8;;;3.3;;
23252;SDS011;11795;47.054;15.408;2022-09-28T06:58:00;4.8;;;3.3;;
23252;SDS011;11795;47.054;15.408;2022-09-28T07:00:00;5.3;;;3.3;;
23252;SDS011;11795;47.054;15.408;2022-09-28T07:02:00;5.3;;;3.3;;
23252;SDS011;11795;47.054;15.408;2022-09-28T07:04:00;5.0;;;3.3;;
23252;SDS011;11795;47.054;15.408;2022-09-28T07:06:01;5.0;;;3.3;;
23252;SDS011;11795;47.054;15.408;2022-09-28T07:08:01;5.0;;;3.3;;
23252;SDS011;11795;47.054;15.408;2022-09-28T07:10:00;3.7;;;2.9;;
23252;SDS011;11795;47.054;15.408;2022-09-28T07:12:00;3.7;;;2.9;;
23252;SDS011;11795;47.054;15.408;2022-09-28T07:14:00;5.3;;;4.6;;
23252;SDS011;11795;47.054;15.408;2022-09-28T07:16:00;5.3;;;4.6;;
23252;SDS011;11795;47.054;15.408;2022-09-28T07:18:00;5.3;;;4.6;;
23252;SDS011;11795;47.054;15.408;2022-09-28T07:20:00;4.6;;;4.0;;
23252;SDS011;11795;47.054;15.408;2022-09-28T07:22:00;4.6;;;4.0;;
23252;SDS011;11795;47.054;15.408;2022-09-28T07:24:00;4.8;;;4.2;;
23252;SDS011;11795;47.054;15.408;2022-09-28T07:26:02;4.8;;;4.2;;
23252;SDS011;11795;47.054;15.408;2022-09-28T07:28:00;4.8;;;4.2;;
23252;SDS011;11795;47.054;15.408;2022-09-28T07:30:00;6.4;;;4.7;;
23252;SDS011;11795;47.054;15.408;2022-09-28T07:32:00;6.4;;;4.7;;
23252;SDS011;11795;47.054;15.408;2022-09-28T07:34:00;5.1;;;4.4;;
23252;SDS011;11795;47.054;15.408;2022-09-28T07:36:05;5.1;;;4.4;;
23252;SDS011;11795;47.054;15.408;2022-09-28T07:38:02;5.1;;;4.4;;
23252;SDS011;11795;47.054;15.408;2022-09-28T07:40:10;5.3;;;4.1;;
23252;SDS011;11795;47.054;15.408;2022-09-28T07:42:00;5.3;;;4.1;;
23252;SDS011;11795;47.054;15.408;2022-09-28T07:44:05;4.8;;;3.9;;
23252;SDS011;11795;47.054;15.408;2022-09-28T07:46:00;4.8;;;3.9;;
23252;SDS011;11795;47.054;15.408;2022-09-28T07:48:00;4.8;;;3.9;;
23252;SDS011;11795;47.054;15.408;2022-09-28T07:50:00;4.4;;;3.8;;
23252;SDS011;11795;47.054;15.408;2022-09-28T07:52:00;4.4;;;3.8;;
23252;SDS011;11795;47.054;15.408;2022-09-28T07:54:00;3.9;;;3.5;;
23252;SDS011;11795;47.054;15.408;2022-09-28T07:56:04;3.9;;;3.5;;
23252;SDS011;11795;47.054;15.408;2022-09-28T07:58:00;3.9;;;3.5;;
23252;SDS011;11795;47.054;15.408;2022-09-28T08:00:02;7.1;;;4.2;;
23252;SDS011;11795;47.054;15.408;2022-09-28T08:02:00;7.1;;;4.2;;
23252;SDS011;11795;47.054;15.408;2022-09-28T08:04:00;3.6;;;2.8;;
23252;SDS011;11795;47.054;15.408;2022-09-28T08:06:00;3.6;;;2.8;;
23252;SDS011;11795;47.054;15.408;2022-09-28T08:08:00;3.6;;;2.8;;
23252;SDS011;11795;47.054;15.408;2022-09-28T08:10:00;4.5;;;3.6;;
23252;SDS011;11795;47.054;15.408;2022-09-28T08:12:00;4.5;;;3.6;;
23252;SDS011;11795;47.054;15.408;2022-09-28T08:14:01;4.9;;;4.2;;
23252;SDS011;11795;47.054;15.408;2022-09-28T08:16:00;4.9;;;4.2;;
23252;SDS011;11795;47.054;15.408;2022-09-28T08:18:00;4.9;;;4.2;;
23252;SDS011;11795;47.054;15.408;2022-09-28T08:20:10;7.4;;;4.4;;
23252;SDS011;11795;47.054;15.408;2022-09-28T08:22:00;7.4;;;4.4;;
23252;SDS011;11795;47.054;15.408;2022-09-28T08:24:00;7.7;;;5.3;;
23252;SDS011;11795;47.054;15.408;2022-09-28T08:26:00;7.7;;;5.3;;
23252;SDS011;11795;47.054;15.408;2022-09-28T08:28:00;7.7;;;5.3;;
23252;SDS011;11795;47.054;15.408;2022-09-28T08:30:00;7.9;;;6.3;;
23252;SDS011;11795;47.054;15.408;2022-09-28T08:32:00;7.9;;;6.3;;
23252;SDS011;11795;47.054;15.408;2022-09-28T08:34:00;10.8;;;6.9;;
23252;SDS011;11795;47.054;15.408;2022-09-28T08:36:00;10.8;;;6.9;;
23252;SDS011;11795;47.054;15.408;2022-09-28T08:38:02;10.8;;;6.9;;
23252;SDS011;11795;47.054;15.408;2022-09-28T08:40:00;10.4;;;6.8;;
23252;SDS011;11795;47.054;15.408;2022-09-28T08:42:04;10.4;;;6.8;;
23252;SDS011;11795;47.054;15.408;2022-09-28T08:44:07;8.7;;;6.5;;
23252;SDS011;11795;47.054;15.408;2022-09-28T08:46:00;8.7;;;6.5;;
23252;SDS011;11795;47.054;15.408;2022-09-28T08:48:11;8.7;;;6.5;;
23252;SDS011;11795;47.054;15.408;2022-09-28T08:50:00;9.5;;;7.4;;
23252;SDS011;11795;47.054;15.408;2022-09-28T08:52:01;9.5;;;7.4;;
23252;SDS011;11795;47.054;15.408;2022-09-28T08:54:01;9.5;;;7.4;;
23252;SDS011;11795;47.054;15.408;2022-09-28T08:56:00;8.3;;;6.5;;
23252;SDS011;11795;47.054;15.408;2022-09-28T08:58:01;8.3;;;6.5;;
23252;SDS011;11795;47.054;15.408;2022-09-28T09:00:00;9.1;;;6.7;;
23252;SDS011;11795;47.054;15.408;2022-09-28T09:02:01;9.1;;;6.7;;
23252;SDS011;11795;47.054;15.408;2022-09-28T09:04:01;9.1;;;6.7;;
23252;SDS011;11795;47.054;15.408;2022-09-28T09:06:02;7.9;;;6.3;;
23252;SDS011;11795;47.054;15.408;2022-09-28T09:08:05;7.9;;;6.3;;
23252;SDS011;11795;47.054;15.408;2022-09-28T09:10:02;9.4;;;6.0;;
23252;SDS011;11795;47.054;15.408;2022-09-28T09:12:02;9.4;;;6.0;;
23252;SDS011;11795;47.054;15.408;2022-09-28T09:14:06;9.4;;;6.0;;
23252;SDS011;11795;47.054;15.408;2022-09-28T09:16:01;6.5;;;5.5;;
23252;SDS011;11795;47.054;15.408;2022-09-28T09:18:03;6.5;;;5.5;;
23252;SDS011;11795;47.054;15.408;2022-09-28T09:20:02;9.3;;;6.9;;
23252;SDS011;11795;47.054;15.408;2022-09-28T09:22:04;9.3;;;6.9;;
23252;SDS011;11795;47.054;15.408;2022-09-28T09:24:03;9.3;;;6.9;;
23252;SDS011;11795;47.054;15.408;2022-09-28T09:26:02;7.6;;;6.6;;
23252;SDS011;11795;47.054;15.408;2022-09-28T09:28:06;7.6;;;6.6;;
23252;SDS011;11795;47.054;15.408;2022-09-28T09:30:02;8.7;;;6.7;;
23252;SDS011;11795;47.054;15.408;2022-09-28T09:32:07;8.7;;;6.7;;
23252;SDS011;11795;47.054;15.408;2022-09-28T09:34:04;8.7;;;6.7;;
23252;SDS011;11795;47.054;15.408;2022-09-28T09:36:04;8.5;;;6.5;;
23252;SDS011;11795;47.054;15.408;2022-09-28T09:38:05;8.5;;;6.5;;
23252;SDS011;11795;47.054;15.408;2022-09-28T09:40:03;7.2;;;5.8;;
23252;SDS011;11795;47.054;15.408;2022-09-28T09:42:03;7.2;;;5.8;;
23252;SDS011;11795;47.054;15.408;2022-09-28T09:44:07;7.2;;;5.8;;
23252;SDS011;11795;47.054;15.408;2022-09-28T09:46:03;6.4;;;5.0;;
23252;SDS011;11795;47.054;15.408;2022-09-28T09:48:01;6.4;;;5.0;;
23252;SDS011;11795;47.054;15.408;2022-09-28T09:50:02;6.9;;;4.3;;
23252;SDS011;11795;47.054;15.408;2022-09-28T09:52:01;6.9;;;4.3;;
23252;SDS011;11795;47.054;15.408;2022-09-28T09:54:00;6.9;;;4.3;;
23252;SDS011;11795;47.054;15.408;2022-09-28T09:56:02;7.3;;;4.2;;
23252;SDS011;11795;47.054;15.408;2022-09-28T09:58:02;7.3;;;4.2;;
23252;SDS011;11795;47.054;15.408;2022-09-28T10:00:00;5.0;;;3.9;;
23252;SDS011;11795;47.054;15.408;2022-09-28T10:02:00;5.0;;;3.9;;
23252;SDS011;11795;47.054;15.408;2022-09-28T10:04:00;5.0;;;3.9;;
23252;SDS011;11795;47.054;15.408;2022-09-28T10:06:00;3.6;;;3.1;;
23252;SDS011;11795;47.054;15.408;2022-09-28T10:08:02;3.6;;;3.1;;
23252;SDS011;11795;47.054;15.408;2022-09-28T10:10:00;4.0;;;3.2;;
23252;SDS011;11795;47.054;15.408;2022-09-28T10:12:00;4.0;;;3.2;;
23252;SDS011;11795;47.054;15.408;2022-09-28T10:14:00;4.0;;;3.2;;
23252;SDS011;11795;47.054;15.408;2022-09-28T10:16:00;4.2;;;3.8;;
23252;SDS011;11795;47.054;15.408;2022-09-28T10:18:01;4.2;;;3.8;;
23252;SDS011;11795;47.054;15.408;2022-09-28T10:20:00;4.6;;;3.7;;
23252;SDS011;11795;47.054;15.408;2022-09-28T10:22:02;4.6;;;3.7;;
23252;SDS011;11795;47.054;15.408;2022-09-28T10:24:01;4.6;;;3.7;;
23252;SDS011;11795;47.054;15.408;2022-09-28T10:26:01;3.1;;;2.9;;
23252;SDS011;11795;47.054;15.408;2022-09-28T10:28:00;3.1;;;2.9;;
23252;SDS011;11795;47.054;15.408;2022-09-28T10:30:01;6.9;;;5.2;;
23252;SDS011;11795;47.054;15.408;2022-09-28T10:32:00;6.9;;;5.2;;
23252;SDS011;11795;47.054;15.408;2022-09-28T10:34:00;6.9;;;5.2;;
23252;SDS011;11795;47.054;15.408;2022-09-28T10:36:00;3.9;;;3.2;;
23252;SDS011;11795;47.054;15.408;2022-09-28T10:38:04;3.9;;;3.2;;
23252;SDS011;11795;47.054;15.408;2022-09-28T10:40:00;3.6;;;3.3;;
23252;SDS011;11795;47.054;15.408;2022-09-28T10:42:04;3.6;;;3.3;;
23252;SDS011;11795;47.054;15.408;2022-09-28T10:44:05;3.6;;;3.3;;
23252;SDS011;11795;47.054;15.408;2022-09-28T10:46:02;2.9;;;2.7;;
23252;SDS011;11795;47.054;15.408;2022-09-28T10:48:03;2.9;;;2.7;;
23252;SDS011;11795;47.054;15.408;2022-09-28T10:50:00;2.8;;;2.6;;
23252;SDS011;11795;47.054;15.408;2022-09-28T10:52:00;2.8;;;2.6;;
23252;SDS011;11795;47.054;15.408;2022-09-28T10:54:00;2.8;;;2.6;;
23252;SDS011;11795;47.054;15.408;2022-09-28T10:56:00;5.4;;;3.1;;
23252;SDS011;11795;47.054;15.408;2022-09-28T10:58:00;5.4;;;3.1;;
23252;SDS011;11795;47.054;15.408;2022-09-28T11:00:00;3.0;;;2.7;;
23252;SDS011;11795;47.054;15.408;2022-09-28T11:02:00;3.0;;;2.7;;
23252;SDS011;11795;47.054;15.408;2022-09-28T11:04:00;3.0;;;2.7;;
23252;SDS011;11795;47.054;15.408;2022-09-28T11:06:00;2.3;;;2.1;;
23252;SDS011;11795;47.054;15.408;2022-09-28T11:08:01;2.3;;;2.1;;
23252;SDS011;11795;47.054;15.408;2022-09-28T11:10:00;2.4;;;2.1;;
23252;SDS011;11795;47.054;15.408;2022-09-28T11:12:01;2.4;;;2.1;;
23252;SDS011;11795;47.054;15.408;2022-09-28T11:14:00;2.4;;;2.1;;
23252;SDS011;11795;47.054;15.408;2022-09-28T11:16:00;3.8;;;2.7;;
23252;SDS011;11795;47.054;15.408;2022-09-28T11:20:01;3.8;;;2.8;;
23252;SDS011;11795;47.054;15.408;2022-09-28T11:22:00;3.8;;;2.8;;
23252;SDS011;11795;47.054;15.408;2022-09-28T11:24:01;3.8;;;2.8;;
23252;SDS011;11795;47.054;15.408;2022-09-28T11:26:00;3.7;;;2.7;;
23252;SDS011;11795;47.054;15.408;2022-09-28T11:28:00;3.7;;;2.7;;
23252;SDS011;11795;47.054;15.408;2022-09-28T11:30:00;2.3;;;2.1;;
23252;SDS011;11795;47.054;15.408;2022-09-28T11:32:00;2.3;;;2.1;;
23252;SDS011;11795;47.054;15.408;2022-09-28T11:34:02;2.3;;;2.1;;
23252;SDS011;11795;47.054;15.408;2022-09-28T11:36:04;2.2;;;2.0;;
23252;SDS011;11795;47.054;15.408;2022-09-28T11:40:03;2.4;;;2.2;;
23252;SDS011;11795;47.054;15.408;2022-09-28T11:42:03;2.4;;;2.2;;
23252;SDS011;11795;47.054;15.408;2022-09-28T11:44:04;2.4;;;2.2;;
23252;SDS011;11795;47.054;15.408;2022-09-28T11:46:01;3.5;;;2.5;;
23252;SDS011;11795;47.054;15.408;2022-09-28T11:48:00;3.5;;;2.5;;
23252;SDS011;11795;47.054;15.408;2022-09-28T11:50:02;2.6;;;2.2;;
23252;SDS011;11795;47.054;15.408;2022-09-28T11:52:01;2.6;;;2.2;;
23252;SDS011;11795;47.054;15.408;2022-09-28T11:54:01;2.6;;;2.2;;
23252;SDS011;11795;47.054;15.408;2022-09-28T11:56:02;3.6;;;2.3;;
23252;SDS011;11795;47.054;15.408;2022-09-28T11:58:02;3.6;;;2.3;;
23252;SDS011;11795;47.054;15.408;2022-09-28T12:00:03;2.5;;;1.9;;
23252;SDS011;11795;47.054;15.408;2022-09-28T12:02:01;2.5;;;1.9;;
23252;SDS011;11795;47.054;15.408;2022-09-28T12:04:01;2.5;;;1.9;;
23252;SDS011;11795;47.054;15.408;2022-09-28T12:06:01;2.6;;;2.3;;
23252;SDS011;11795;47.054;15.408;2022-09-28T12:08:00;2.6;;;2.3;;
23252;SDS011;11795;47.054;15.408;2022-09-28T12:10:02;2.4;;;2.2;;
23252;SDS011;11795;47.054;15.408;2022-09-28T12:12:01;2.4;;;2.2;;
23252;SDS011;11795;47.054;15.408;2022-09-28T12:14:00;2.4;;;2.2;;
23252;SDS011;11795;47.054;15.408;2022-09-28T12:16:02;4.3;;;2.6;;
23252;SDS011;11795;47.054;15.408;2022-09-28T12:18:01;4.3;;;2.6;;
23252;SDS011;11795;47.054;15.408;2022-09-28T12:20:00;3.1;;;2.2;;
23252;SDS011;11795;47.054;15.408;2022-09-28T12:22:02;3.1;;;2.2;;
23252;SDS011;11795;47.054;15.408;2022-09-28T12:24:02;3.1;;;2.2;;